sensor_id;sensor_type;location;lat;lon;timestamp;P1;durP1;ratioP1;P2;durP2;ratioP2
77136;SDS011;66102;48.542;-2.970;2023-04-01T00:02:18;10.23;;;2.15;;
77136;SDS011;66102;48.542;-2.970;2023-04-01T00:04:44;13.80;;;2.50;;
77136;SDS011;66102;48.542;-2.970;2023-04-01T00:07:10;18.15;;;2.75;;
77136;SDS011;66102;48.542;-2.970;2023-04-01T00:09:36;17.25;;;2.60;;
77136;SDS011;66102;48.542;-2.970;2023-04-01T00:12:02;11.02;;;2.65;;
77136;SDS011;66102;48.542;-2.970;2023-04-01T00:14:29;12.85;;;2.42;;
77136;SDS011;66102;48.542;-2.970;2023-04-01T00:16:55;17.15;;;2.47;;
77136;SDS011;66102;48.542;-2.970;2023-04-01T00:19:21;14.95;;;2.97;;
77136;SDS011;66102;48.542;-2.970;2023-04-01T00:21:47;14.18;;;2.45;;
77136;SDS011;66102;48.542;-2.970;2023-04-01T00:24:14;13.07;;;2.00;;
77136;SDS011;66102;48.542;-2.970;2023-04-01T00:26:40;13.00;;;1.95;;
77136;SDS011;66102;48.542;-2.970;2023-04-01T00:29:07;13.98;;;2.67;;
77136;SDS011;66102;48.542;-2.970;2023-04-01T00:31:33;10.80;;;1.95;;
77136;SDS011;66102;48.542;-2.970;2023-04-01T00:33:59;13.40;;;2.00;;
77136;SDS011;66102;48.542;-2.970;2023-04-01T00:36:25;11.07;;;2.00;;
77136;SDS011;66102;48.542;-2.970;2023-04-01T00:38:51;13.48;;;2.20;;
77136;SDS011;66102;48.542;-2.970;2023-04-01T00:41:18;14.18;;;1.88;;
77136;SDS011;66102;48.542;-2.970;2023-04-01T00:43:45;15.82;;;1.80;;
77136;SDS011;66102;48.542;-2.970;2023-04-01T00:46:12;16.80;;;2.28;;
77136;SDS011;66102;48.542;-2.970;2023-04-01T00:48:39;15.95;;;2.25;;
77136;SDS011;66102;48.542;-2.970;2023-04-01T00:51:09;13.52;;;2.30;;
77136;SDS011;66102;48.542;-2.970;2023-04-01T00:53:36;14.30;;;2.03;;
77136;SDS011;66102;48.542;-2.970;2023-04-01T00:56:10;12.45;;;2.42;;
77136;SDS011;66102;48.542;-2.970;2023-04-01T00:58:38;12.23;;;2.10;;
77136;SDS011;66102;48.542;-2.970;2023-04-01T01:01:05;16.58;;;2.03;;
77136;SDS011;66102;48.542;-2.970;2023-04-01T01:03:31;12.73;;;1.75;;
77136;SDS011;66102;48.542;-2.970;2023-04-01T01:08:52;15.63;;;2.10;;
77136;SDS011;66102;48.542;-2.970;2023-04-01T01:11:19;13.30;;;2.60;;
77136;SDS011;66102;48.542;-2.970;2023-04-01T01:14:10;12.45;;;2.72;;
77136;SDS011;66102;48.542;-2.970;2023-04-01T01:16:36;21.38;;;2.63;;
77136;SDS011;66102;48.542;-2.970;2023-04-01T01:21:54;16.10;;;2.28;;
77136;SDS011;66102;48.542;-2.970;2023-04-01T01:32:10;17.50;;;2.78;;
77136;SDS011;66102;48.542;-2.970;2023-04-01T01:37:15;13.40;;;2.10;;
77136;SDS011;66102;48.542;-2.970;2023-04-01T01:39:43;16.10;;;3.00;;
77136;SDS011;66102;48.542;-2.970;2023-04-01T01:42:11;15.75;;;2.20;;
77136;SDS011;66102;48.542;-2.970;2023-04-01T01:44:37;15.18;;;2.38;;
77136;SDS011;66102;48.542;-2.970;2023-04-01T01:47:04;13.98;;;2.30;;
77136;SDS011;66102;48.542;-2.970;2023-04-01T01:49:31;12.02;;;2.25;;
77136;SDS011;66102;48.542;-2.970;2023-04-01T01:51:58;16.15;;;2.13;;
77136;SDS011;66102;48.542;-2.970;2023-04-01T01:54:24;14.90;;;2.63;;
77136;SDS011;66102;48.542;-2.970;2023-04-01T01:56:51;11.07;;;1.88;;
77136;SDS011;66102;48.542;-2.970;2023-04-01T01:59:17;11.15;;;2.03;;
77136;SDS011;66102;48.542;-2.970;2023-04-01T02:01:47;12.23;;;1.90;;
77136;SDS011;66102;48.542;-2.970;2023-04-01T02:04:14;14.68;;;2.40;;
77136;SDS011;66102;48.542;-2.970;2023-04-01T02:06:45;16.77;;;2.00;;
77136;SDS011;66102;48.542;-2.970;2023-04-01T02:09:13;12.93;;;2.55;;
77136;SDS011;66102;48.542;-2.970;2023-04-01T02:11:47;14.95;;;2.60;;
77136;SDS011;66102;48.542;-2.970;2023-04-01T02:14:22;17.20;;;2.25;;
77136;SDS011;66102;48.542;-2.970;2023-04-01T02:16:57;14.82;;;2.10;;
77136;SDS011;66102;48.542;-2.970;2023-04-01T02:19:25;19.92;;;3.22;;
77136;SDS011;66102;48.542;-2.970;2023-04-01T02:21:53;20.98;;;2.80;;
77136;SDS011;66102;48.542;-2.970;2023-04-01T02:24:20;17.27;;;2.30;;
77136;SDS011;66102;48.542;-2.970;2023-04-01T02:26:52;8.52;;;1.88;;
77136;SDS011;66102;48.542;-2.970;2023-04-01T02:29:19;16.63;;;3.22;;
77136;SDS011;66102;48.542;-2.970;2023-04-01T02:31:46;14.50;;;2.63;;
77136;SDS011;66102;48.542;-2.970;2023-04-01T02:34:12;14.02;;;2.38;;
77136;SDS011;66102;48.542;-2.970;2023-04-01T02:36:39;11.55;;;2.30;;
77136;SDS011;66102;48.542;-2.970;2023-04-01T02:39:05;14.65;;;2.30;;
77136;SDS011;66102;48.542;-2.970;2023-04-01T02:41:32;12.65;;;2.50;;
77136;SDS011;66102;48.542;-2.970;2023-04-01T02:44:04;14.35;;;2.45;;
77136;SDS011;66102;48.542;-2.970;2023-04-01T02:46:30;11.20;;;1.98;;
77136;SDS011;66102;48.542;-2.970;2023-04-01T02:48:56;13.65;;;2.53;;
77136;SDS011;66102;48.542;-2.970;2023-04-01T02:51:22;16.17;;;2.63;;
77136;SDS011;66102;48.542;-2.970;2023-04-01T02:53:48;15.05;;;2.40;;
77136;SDS011;66102;48.542;-2.970;2023-04-01T02:56:14;12.60;;;2.05;;
77136;SDS011;66102;48.542;-2.970;2023-04-01T02:58:40;14.45;;;2.50;;
77136;SDS011;66102;48.542;-2.970;2023-04-01T03:01:06;11.57;;;1.80;;
77136;SDS011;66102;48.542;-2.970;2023-04-01T03:03:33;11.75;;;2.15;;
77136;SDS011;66102;48.542;-2.970;2023-04-01T03:06:04;11.23;;;2.10;;
77136;SDS011;66102;48.542;-2.970;2023-04-01T03:08:30;12.32;;;2.08;;
77136;SDS011;66102;48.542;-2.970;2023-04-01T03:10:56;9.98;;;1.90;;
77136;SDS011;66102;48.542;-2.970;2023-04-01T03:13:22;11.35;;;1.92;;
77136;SDS011;66102;48.542;-2.970;2023-04-01T03:15:48;16.65;;;2.25;;
77136;SDS011;66102;48.542;-2.970;2023-04-01T03:18:14;12.70;;;2.03;;
77136;SDS011;66102;48.542;-2.970;2023-04-01T03:20:41;10.98;;;1.80;;
77136;SDS011;66102;48.542;-2.970;2023-04-01T03:23:07;12.43;;;2.10;;
77136;SDS011;66102;48.542;-2.970;2023-04-01T03:25:33;20.17;;;2.35;;
77136;SDS011;66102;48.542;-2.970;2023-04-01T03:28:00;11.32;;;2.22;;
77136;SDS011;66102;48.542;-2.970;2023-04-01T03:30:26;10.65;;;2.67;;
77136;SDS011;66102;48.542;-2.970;2023-04-01T03:32:52;14.40;;;2.10;;
77136;SDS011;66102;48.542;-2.970;2023-04-01T03:35:18;8.93;;;2.08;;
77136;SDS011;66102;48.542;-2.970;2023-04-01T03:37:45;10.48;;;2.08;;
77136;SDS011;66102;48.542;-2.970;2023-04-01T03:40:11;10.48;;;2.17;;
77136;SDS011;66102;48.542;-2.970;2023-04-01T03:42:37;17.30;;;2.80;;
77136;SDS011;66102;48.542;-2.970;2023-04-01T03:45:03;14.35;;;2.45;;
77136;SDS011;66102;48.542;-2.970;2023-04-01T03:47:30;14.70;;;2.15;;
77136;SDS011;66102;48.542;-2.970;2023-04-01T03:49:56;12.40;;;2.35;;
77136;SDS011;66102;48.542;-2.970;2023-04-01T03:52:22;10.55;;;1.80;;
77136;SDS011;66102;48.542;-2.970;2023-04-01T03:54:48;16.15;;;2.67;;
77136;SDS011;66102;48.542;-2.970;2023-04-01T03:57:14;12.95;;;2.00;;
77136;SDS011;66102;48.542;-2.970;2023-04-01T03:59:40;14.25;;;2.13;;
77136;SDS011;66102;48.542;-2.970;2023-04-01T04:02:06;11.13;;;2.10;;
77136;SDS011;66102;48.542;-2.970;2023-04-01T04:04:32;14.07;;;2.28;;
77136;SDS011;66102;48.542;-2.970;2023-04-01T04:06:58;14.10;;;2.28;;
77136;SDS011;66102;48.542;-2.970;2023-04-01T04:09:24;10.13;;;1.65;;
77136;SDS011;66102;48.542;-2.970;2023-04-01T04:11:50;17.15;;;2.72;;
77136;SDS011;66102;48.542;-2.970;2023-04-01T04:14:16;14.25;;;1.92;;
77136;SDS011;66102;48.542;-2.970;2023-04-01T04:16:42;17.27;;;2.30;;
77136;SDS011;66102;48.542;-2.970;2023-04-01T04:19:08;10.32;;;2.53;;
77136;SDS011;66102;48.542;-2.970;2023-04-01T04:21:34;13.70;;;1.90;;
77136;SDS011;66102;48.542;-2.970;2023-04-01T04:24:01;11.65;;;2.05;;
77136;SDS011;66102;48.542;-2.970;2023-04-01T04:26:27;6.03;;;1.55;;
77136;SDS011;66102;48.542;-2.970;2023-04-01T04:28:53;10.77;;;2.38;;
77136;SDS011;66102;48.542;-2.970;2023-04-01T04:31:21;10.13;;;1.67;;
77136;SDS011;66102;48.542;-2.970;2023-04-01T04:33:47;9.50;;;2.35;;
77136;SDS011;66102;48.542;-2.970;2023-04-01T04:36:13;11.23;;;1.85;;
77136;SDS011;66102;48.542;-2.970;2023-04-01T04:38:39;12.82;;;2.20;;
77136;SDS011;66102;48.542;-2.970;2023-04-01T04:41:09;8.77;;;1.60;;
77136;SDS011;66102;48.542;-2.970;2023-04-01T04:43:36;9.52;;;1.85;;
77136;SDS011;66102;48.542;-2.970;2023-04-01T04:46:10;11.57;;;1.70;;
77136;SDS011;66102;48.542;-2.970;2023-04-01T04:48:36;11.73;;;2.05;;
77136;SDS011;66102;48.542;-2.970;2023-04-01T04:51:02;8.10;;;1.70;;
77136;SDS011;66102;48.542;-2.970;2023-04-01T04:53:29;10.43;;;2.28;;
77136;SDS011;66102;48.542;-2.970;2023-04-01T04:55:55;9.05;;;1.67;;
77136;SDS011;66102;48.542;-2.970;2023-04-01T04:58:21;12.80;;;2.25;;
77136;SDS011;66102;48.542;-2.970;2023-04-01T05:00:47;18.35;;;2.17;;
77136;SDS011;66102;48.542;-2.970;2023-04-01T05:03:13;13.02;;;1.95;;
77136;SDS011;66102;48.542;-2.970;2023-04-01T05:05:39;12.30;;;2.80;;
77136;SDS011;66102;48.542;-2.970;2023-04-01T05:08:06;12.90;;;1.90;;
77136;SDS011;66102;48.542;-2.970;2023-04-01T05:10:32;16.75;;;2.10;;
77136;SDS011;66102;48.542;-2.970;2023-04-01T05:12:58;9.60;;;2.03;;
77136;SDS011;66102;48.542;-2.970;2023-04-01T05:15:24;11.07;;;2.33;;
77136;SDS011;66102;48.542;-2.970;2023-04-01T05:17:50;11.07;;;1.98;;
77136;SDS011;66102;48.542;-2.970;2023-04-01T05:20:16;14.63;;;2.45;;
77136;SDS011;66102;48.542;-2.970;2023-04-01T05:22:42;12.25;;;2.88;;
77136;SDS011;66102;48.542;-2.970;2023-04-01T05:25:09;8.93;;;2.13;;
77136;SDS011;66102;48.542;-2.970;2023-04-01T05:27:35;11.65;;;2.30;;
77136;SDS011;66102;48.542;-2.970;2023-04-01T05:30:01;11.35;;;2.53;;
77136;SDS011;66102;48.542;-2.970;2023-04-01T05:32:27;13.15;;;2.08;;
77136;SDS011;66102;48.542;-2.970;2023-04-01T05:34:53;12.68;;;2.50;;
77136;SDS011;66102;48.542;-2.970;2023-04-01T05:37:19;15.65;;;2.85;;
77136;SDS011;66102;48.542;-2.970;2023-04-01T05:39:45;15.48;;;2.38;;
77136;SDS011;66102;48.542;-2.970;2023-04-01T05:42:11;12.70;;;2.20;;
77136;SDS011;66102;48.542;-2.970;2023-04-01T05:44:38;16.30;;;2.10;;
77136;SDS011;66102;48.542;-2.970;2023-04-01T05:47:04;15.90;;;2.50;;
77136;SDS011;66102;48.542;-2.970;2023-04-01T05:49:30;9.90;;;2.30;;
77136;SDS011;66102;48.542;-2.970;2023-04-01T05:51:56;15.25;;;2.38;;
77136;SDS011;66102;48.542;-2.970;2023-04-01T05:54:22;12.90;;;2.55;;
77136;SDS011;66102;48.542;-2.970;2023-04-01T05:56:48;22.58;;;2.85;;
77136;SDS011;66102;48.542;-2.970;2023-04-01T05:59:14;17.55;;;2.50;;
77136;SDS011;66102;48.542;-2.970;2023-04-01T06:01:41;14.65;;;2.03;;
77136;SDS011;66102;48.542;-2.970;2023-04-01T06:04:09;19.05;;;2.35;;
77136;SDS011;66102;48.542;-2.970;2023-04-01T06:06:36;9.07;;;2.38;;
77136;SDS011;66102;48.542;-2.970;2023-04-01T06:09:15;16.92;;;2.20;;
77136;SDS011;66102;48.542;-2.970;2023-04-01T06:12:16;13.75;;;2.00;;
77136;SDS011;66102;48.542;-2.970;2023-04-01T06:24:43;14.23;;;2.55;;
77136;SDS011;66102;48.542;-2.970;2023-04-01T06:29:50;11.73;;;2.53;;
77136;SDS011;66102;48.542;-2.970;2023-04-01T06:35:34;16.65;;;2.88;;
77136;SDS011;66102;48.542;-2.970;2023-04-01T06:46:09;9.60;;;2.47;;
77136;SDS011;66102;48.542;-2.970;2023-04-01T06:48:54;14.98;;;2.10;;
77136;SDS011;66102;48.542;-2.970;2023-04-01T06:51:31;9.82;;;1.90;;
77136;SDS011;66102;48.542;-2.970;2023-04-01T06:54:21;12.48;;;2.20;;
77136;SDS011;66102;48.542;-2.970;2023-04-01T06:56:46;12.63;;;2.17;;
77136;SDS011;66102;48.542;-2.970;2023-04-01T06:59:19;9.50;;;1.77;;
77136;SDS011;66102;48.542;-2.970;2023-04-01T07:04:26;12.57;;;2.35;;
77136;SDS011;66102;48.542;-2.970;2023-04-01T07:09:40;12.60;;;2.20;;
77136;SDS011;66102;48.542;-2.970;2023-04-01T07:12:49;14.50;;;2.70;;
77136;SDS011;66102;48.542;-2.970;2023-04-01T07:14:57;16.30;;;2.58;;
77136;SDS011;66102;48.542;-2.970;2023-04-01T07:17:25;11.80;;;2.45;;
77136;SDS011;66102;48.542;-2.970;2023-04-01T07:19:56;11.93;;;2.38;;
77136;SDS011;66102;48.542;-2.970;2023-04-01T07:22:33;10.10;;;2.17;;
77136;SDS011;66102;48.542;-2.970;2023-04-01T07:27:45;13.85;;;2.25;;
77136;SDS011;66102;48.542;-2.970;2023-04-01T07:45:20;11.45;;;2.00;;
77136;SDS011;66102;48.542;-2.970;2023-04-01T07:50:28;11.75;;;2.50;;
77136;SDS011;66102;48.542;-2.970;2023-04-01T08:03:29;9.20;;;1.48;;
77136;SDS011;66102;48.542;-2.970;2023-04-01T08:05:59;9.77;;;1.73;;
77136;SDS011;66102;48.542;-2.970;2023-04-01T08:08:29;9.98;;;1.63;;
77136;SDS011;66102;48.542;-2.970;2023-04-01T08:13:34;14.25;;;2.05;;
77136;SDS011;66102;48.542;-2.970;2023-04-01T08:21:19;12.52;;;1.65;;
77136;SDS011;66102;48.542;-2.970;2023-04-01T08:23:47;11.02;;;1.77;;
77136;SDS011;66102;48.542;-2.970;2023-04-01T08:28:48;7.80;;;1.88;;
77136;SDS011;66102;48.542;-2.970;2023-04-01T08:33:49;10.05;;;1.60;;
77136;SDS011;66102;48.542;-2.970;2023-04-01T08:36:19;11.13;;;1.52;;
77136;SDS011;66102;48.542;-2.970;2023-04-01T08:38:49;9.80;;;1.60;;
77136;SDS011;66102;48.542;-2.970;2023-04-01T08:41:23;9.82;;;2.25;;
77136;SDS011;66102;48.542;-2.970;2023-04-01T08:51:33;8.48;;;2.05;;
77136;SDS011;66102;48.542;-2.970;2023-04-01T08:54:07;10.88;;;1.80;;
77136;SDS011;66102;48.542;-2.970;2023-04-01T09:04:25;10.60;;;2.38;;
77136;SDS011;66102;48.542;-2.970;2023-04-01T09:09:23;12.95;;;2.10;;
77136;SDS011;66102;48.542;-2.970;2023-04-01T09:16:51;12.02;;;2.20;;
77136;SDS011;66102;48.542;-2.970;2023-04-01T09:19:27;9.55;;;2.08;;
77136;SDS011;66102;48.542;-2.970;2023-04-01T09:22:21;9.02;;;2.17;;
77136;SDS011;66102;48.542;-2.970;2023-04-01T09:25:01;10.13;;;2.50;;
77136;SDS011;66102;48.542;-2.970;2023-04-01T09:35:22;6.68;;;1.30;;
77136;SDS011;66102;48.542;-2.970;2023-04-01T09:46:09;8.82;;;1.42;;
77136;SDS011;66102;48.542;-2.970;2023-04-01T09:48:58;10.80;;;2.20;;
77136;SDS011;66102;48.542;-2.970;2023-04-01T09:59:08;15.93;;;2.53;;
77136;SDS011;66102;48.542;-2.970;2023-04-01T10:23:18;11.15;;;1.83;;
77136;SDS011;66102;48.542;-2.970;2023-04-01T10:44:03;12.32;;;2.70;;
77136;SDS011;66102;48.542;-2.970;2023-04-01T10:52:10;11.85;;;2.55;;
77136;SDS011;66102;48.542;-2.970;2023-04-01T11:11:42;12.23;;;1.85;;
77136;SDS011;66102;48.542;-2.970;2023-04-01T11:24:49;10.60;;;2.00;;
77136;SDS011;66102;48.542;-2.970;2023-04-01T11:38:06;12.27;;;2.50;;
77136;SDS011;66102;48.542;-2.970;2023-04-01T11:43:13;12.73;;;2.33;;
77136;SDS011;66102;48.542;-2.970;2023-04-01T11:45:47;9.15;;;2.17;;
77136;SDS011;66102;48.542;-2.970;2023-04-01T12:01:29;8.45;;;1.70;;
77136;SDS011;66102;48.542;-2.970;2023-04-01T12:11:34;10.13;;;2.58;;
77136;SDS011;66102;48.542;-2.970;2023-04-01T12:14:16;11.38;;;2.33;;
77136;SDS011;66102;48.542;-2.970;2023-04-01T12:16:55;9.65;;;2.40;;
77136;SDS011;66102;48.542;-2.970;2023-04-01T12:24:34;15.57;;;2.55;;
77136;SDS011;66102;48.542;-2.970;2023-04-01T12:35:20;13.07;;;2.25;;
77136;SDS011;66102;48.542;-2.970;2023-04-01T12:43:13;12.50;;;2.33;;
77136;SDS011;66102;48.542;-2.970;2023-04-01T13:01:30;14.30;;;2.25;;
77136;SDS011;66102;48.542;-2.970;2023-04-01T13:06:29;11.05;;;2.15;;
77136;SDS011;66102;48.542;-2.970;2023-04-01T13:29:27;9.38;;;2.10;;
77136;SDS011;66102;48.542;-2.970;2023-04-01T13:39:44;10.95;;;1.85;;
77136;SDS011;66102;48.542;-2.970;2023-04-01T13:58:04;9.85;;;1.85;;
77136;SDS011;66102;48.542;-2.970;2023-04-01T14:01:25;14.25;;;2.35;;
77136;SDS011;66102;48.542;-2.970;2023-04-01T14:18:50;8.88;;;1.90;;
77136;SDS011;66102;48.542;-2.970;2023-04-01T14:24:00;11.27;;;2.10;;
77136;SDS011;66102;48.542;-2.970;2023-04-01T14:29:13;12.02;;;1.98;;
77136;SDS011;66102;48.542;-2.970;2023-04-01T14:31:44;7.45;;;1.63;;
77136;SDS011;66102;48.542;-2.970;2023-04-01T14:34:22;9.45;;;1.50;;
77136;SDS011;66102;48.542;-2.970;2023-04-01T14:36:52;8.13;;;1.33;;
77136;SDS011;66102;48.542;-2.970;2023-04-01T14:42:17;9.60;;;1.77;;
77136;SDS011;66102;48.542;-2.970;2023-04-01T14:50:03;10.98;;;1.83;;
77136;SDS011;66102;48.542;-2.970;2023-04-01T14:52:31;5.80;;;1.30;;
77136;SDS011;66102;48.542;-2.970;2023-04-01T14:54:59;9.55;;;1.33;;
77136;SDS011;66102;48.542;-2.970;2023-04-01T14:57:29;6.55;;;1.17;;
77136;SDS011;66102;48.542;-2.970;2023-04-01T15:00:15;6.43;;;1.25;;
77136;SDS011;66102;48.542;-2.970;2023-04-01T15:03:02;6.45;;;1.17;;
77136;SDS011;66102;48.542;-2.970;2023-04-01T15:05:47;7.47;;;1.35;;
77136;SDS011;66102;48.542;-2.970;2023-04-01T15:08:16;7.97;;;1.30;;
77136;SDS011;66102;48.542;-2.970;2023-04-01T15:10:57;8.77;;;1.35;;
77136;SDS011;66102;48.542;-2.970;2023-04-01T15:18:35;9.30;;;1.80;;
77136;SDS011;66102;48.542;-2.970;2023-04-01T15:21:13;10.80;;;1.42;;
77136;SDS011;66102;48.542;-2.970;2023-04-01T15:31:59;5.00;;;1.20;;
77136;SDS011;66102;48.542;-2.970;2023-04-01T15:42:11;4.78;;;1.00;;
77136;SDS011;66102;48.542;-2.970;2023-04-01T15:47:31;8.15;;;1.63;;
77136;SDS011;66102;48.542;-2.970;2023-04-01T15:50:01;6.13;;;1.52;;
77136;SDS011;66102;48.542;-2.970;2023-04-01T15:52:49;8.02;;;1.20;;
77136;SDS011;66102;48.542;-2.970;2023-04-01T15:55:20;4.53;;;1.00;;
77136;SDS011;66102;48.542;-2.970;2023-04-01T16:00:47;5.85;;;1.13;;
77136;SDS011;66102;48.542;-2.970;2023-04-01T16:08:49;8.43;;;1.50;;
77136;SDS011;66102;48.542;-2.970;2023-04-01T16:19:13;6.97;;;1.30;;
77136;SDS011;66102;48.542;-2.970;2023-04-01T16:21:56;7.10;;;1.40;;
77136;SDS011;66102;48.542;-2.970;2023-04-01T16:24:34;6.63;;;1.30;;
77136;SDS011;66102;48.542;-2.970;2023-04-01T16:37:45;9.10;;;1.98;;
77136;SDS011;66102;48.542;-2.970;2023-04-01T16:43:20;10.63;;;2.10;;
77136;SDS011;66102;48.542;-2.970;2023-04-01T16:45:54;6.93;;;1.45;;
77136;SDS011;66102;48.542;-2.970;2023-04-01T16:51:13;9.05;;;2.08;;
77136;SDS011;66102;48.542;-2.970;2023-04-01T16:53:42;11.48;;;1.70;;
77136;SDS011;66102;48.542;-2.970;2023-04-01T16:56:24;7.20;;;1.60;;
77136;SDS011;66102;48.542;-2.970;2023-04-01T17:04:07;10.63;;;1.77;;
77136;SDS011;66102;48.542;-2.970;2023-04-01T17:06:43;11.40;;;1.95;;
77136;SDS011;66102;48.542;-2.970;2023-04-01T17:16:54;9.93;;;2.20;;
77136;SDS011;66102;48.542;-2.970;2023-04-01T17:24:53;8.32;;;1.50;;
77136;SDS011;66102;48.542;-2.970;2023-04-01T17:38:13;6.25;;;1.50;;
77136;SDS011;66102;48.542;-2.970;2023-04-01T17:43:21;5.55;;;1.00;;
77136;SDS011;66102;48.542;-2.970;2023-04-01T17:55:49;6.35;;;1.23;;
77136;SDS011;66102;48.542;-2.970;2023-04-01T17:58:28;6.57;;;1.20;;
77136;SDS011;66102;48.542;-2.970;2023-04-01T18:01:07;7.35;;;1.00;;
77136;SDS011;66102;48.542;-2.970;2023-04-01T18:23:39;6.05;;;1.75;;
77136;SDS011;66102;48.542;-2.970;2023-04-01T18:26:49;10.88;;;1.60;;
77136;SDS011;66102;48.542;-2.970;2023-04-01T18:29:02;7.68;;;1.65;;
77136;SDS011;66102;48.542;-2.970;2023-04-01T18:31:34;6.93;;;1.42;;
77136;SDS011;66102;48.542;-2.970;2023-04-01T18:34:12;5.78;;;1.45;;
77136;SDS011;66102;48.542;-2.970;2023-04-01T18:36:44;7.93;;;2.10;;
77136;SDS011;66102;48.542;-2.970;2023-04-01T18:39:16;7.57;;;1.38;;
77136;SDS011;66102;48.542;-2.970;2023-04-01T18:41:51;7.43;;;1.63;;
77136;SDS011;66102;48.542;-2.970;2023-04-01T18:46:49;4.00;;;1.25;;
77136;SDS011;66102;48.542;-2.970;2023-04-01T18:51:51;4.78;;;0.98;;
77136;SDS011;66102;48.542;-2.970;2023-04-01T18:54:30;4.88;;;1.13;;
77136;SDS011;66102;48.542;-2.970;2023-04-01T18:57:13;5.55;;;1.55;;
77136;SDS011;66102;48.542;-2.970;2023-04-01T19:02:20;6.38;;;1.48;;
77136;SDS011;66102;48.542;-2.970;2023-04-01T19:09:48;6.03;;;2.20;;
77136;SDS011;66102;48.542;-2.970;2023-04-01T19:12:30;7.47;;;2.42;;
77136;SDS011;66102;48.542;-2.970;2023-04-01T19:15:19;9.18;;;2.30;;
77136;SDS011;66102;48.542;-2.970;2023-04-01T19:20:32;8.70;;;2.70;;
77136;SDS011;66102;48.542;-2.970;2023-04-01T19:25:57;11.60;;;2.75;;
77136;SDS011;66102;48.542;-2.970;2023-04-01T19:33:54;17.63;;;3.00;;
77136;SDS011;66102;48.542;-2.970;2023-04-01T19:44:53;21.10;;;3.50;;
77136;SDS011;66102;48.542;-2.970;2023-04-01T19:52:45;15.57;;;3.53;;
77136;SDS011;66102;48.542;-2.970;2023-04-01T20:00:31;15.35;;;4.15;;
77136;SDS011;66102;48.542;-2.970;2023-04-01T20:03:09;14.05;;;3.65;;
77136;SDS011;66102;48.542;-2.970;2023-04-01T20:08:12;13.90;;;3.83;;
77136;SDS011;66102;48.542;-2.970;2023-04-01T20:13:19;20.55;;;5.00;;
77136;SDS011;66102;48.542;-2.970;2023-04-01T20:15:54;17.15;;;4.63;;
77136;SDS011;66102;48.542;-2.970;2023-04-01T20:20:52;17.63;;;4.43;;
77136;SDS011;66102;48.542;-2.970;2023-04-01T20:25:56;20.27;;;4.93;;
77136;SDS011;66102;48.542;-2.970;2023-04-01T20:28:25;15.70;;;3.58;;
77136;SDS011;66102;48.542;-2.970;2023-04-01T20:31:04;21.20;;;4.68;;
77136;SDS011;66102;48.542;-2.970;2023-04-01T20:41:28;16.98;;;3.67;;
77136;SDS011;66102;48.542;-2.970;2023-04-01T20:44:12;17.30;;;4.97;;
77136;SDS011;66102;48.542;-2.970;2023-04-01T20:51:37;21.38;;;4.45;;
77136;SDS011;66102;48.542;-2.970;2023-04-01T20:57:16;22.85;;;4.13;;
77136;SDS011;66102;48.542;-2.970;2023-04-01T21:08:33;16.98;;;3.65;;
77136;SDS011;66102;48.542;-2.970;2023-04-01T21:13:24;16.50;;;3.30;;
77136;SDS011;66102;48.542;-2.970;2023-04-01T21:31:30;18.85;;;4.03;;
77136;SDS011;66102;48.542;-2.970;2023-04-01T21:34:07;11.13;;;3.05;;
77136;SDS011;66102;48.542;-2.970;2023-04-01T21:36:54;15.88;;;3.60;;
77136;SDS011;66102;48.542;-2.970;2023-04-01T21:52:44;16.58;;;3.15;;
77136;SDS011;66102;48.542;-2.970;2023-04-01T22:00:25;14.95;;;4.45;;
77136;SDS011;66102;48.542;-2.970;2023-04-01T22:05:24;18.50;;;4.10;;
77136;SDS011;66102;48.542;-2.970;2023-04-01T22:10:33;20.13;;;3.22;;
77136;SDS011;66102;48.542;-2.970;2023-04-01T22:13:05;11.00;;;2.47;;
77136;SDS011;66102;48.542;-2.970;2023-04-01T22:18:21;17.35;;;3.58;;
77136;SDS011;66102;48.542;-2.970;2023-04-01T22:21:12;12.63;;;2.97;;
77136;SDS011;66102;48.542;-2.970;2023-04-01T22:26:33;10.07;;;2.25;;
77136;SDS011;66102;48.542;-2.970;2023-04-01T22:31:33;12.55;;;2.63;;
77136;SDS011;66102;48.542;-2.970;2023-04-01T22:36:39;11.57;;;2.80;;
77136;SDS011;66102;48.542;-2.970;2023-04-01T22:44:01;15.15;;;2.80;;
77136;SDS011;66102;48.542;-2.970;2023-04-01T22:49:02;9.25;;;2.22;;
77136;SDS011;66102;48.542;-2.970;2023-04-01T22:57:03;10.65;;;2.22;;
77136;SDS011;66102;48.542;-2.970;2023-04-01T22:59:33;16.85;;;2.60;;
77136;SDS011;66102;48.542;-2.970;2023-04-01T23:02:03;10.88;;;2.38;;
77136;SDS011;66102;48.542;-2.970;2023-04-01T23:04:33;16.38;;;2.47;;
77136;SDS011;66102;48.542;-2.970;2023-04-01T23:07:03;11.05;;;2.47;;
77136;SDS011;66102;48.542;-2.970;2023-04-01T23:09:30;11.20;;;2.00;;
77136;SDS011;66102;48.542;-2.970;2023-04-01T23:27:41;11.00;;;2.13;;
77136;SDS011;66102;48.542;-2.970;2023-04-01T23:32:54;15.43;;;2.95;;
77136;SDS011;66102;48.542;-2.970;2023-04-01T23:35:20;11.20;;;2.60;;
77136;SDS011;66102;48.542;-2.970;2023-04-01T23:37:46;9.73;;;2.33;;
77136;SDS011;66102;48.542;-2.970;2023-04-01T23:40:13;8.23;;;2.22;;
77136;SDS011;66102;48.542;-2.970;2023-04-01T23:42:39;10.30;;;2.88;;
77136;SDS011;66102;48.542;-2.970;2023-04-01T23:45:16;11.50;;;2.25;;
77136;SDS011;66102;48.542;-2.970;2023-04-01T23:47:45;9.88;;;2.70;;
77136;SDS011;66102;48.542;-2.970;2023-04-01T23:50:16;11.25;;;2.55;;
77136;SDS011;66102;48.542;-2.970;2023-04-01T23:52:53;11.05;;;2.33;;
77136;SDS011;66102;48.542;-2.970;2023-04-01T23:55:27;13.93;;;2.30;;
77136;SDS011;66102;48.542;-2.970;2023-04-01T23:58:17;8.05;;;1.90;;
